Airfield :
LOGIN :

Register | Disclaimer

   EN    FR    IT 

 










Legend :    VFR   Marginal VFR   IFR   Intensive IFR   Very Intensive IFR
Visi :
Ceiling :
>= 8 km
>= 3000ft
5 to 8 km
1000 to 3000 ft
1500m to 5 km
500 to 1000 ft
800 to 1500m
200 to 500 ft
< 800m
< 200 ft
Symbols :   Thunderstorms  Fog  Heavy snow  Heavy precipitations  Wind > 20 kt
SIGMETs :     Misc.  Thunderstorms  Icing  Turbulence  Mountain Waves  Volcanic Ashes






- Airport Elevation : 485 ft
- IATA code : QSA


LELL - Sabadell

CURRENT METAR :
  • 190430Z AUTO 30005KT CAVOK 24/20 Q1017

EXPIRED METARs :
  • 190400Z AUTO 18003KT 100V220 9999 FEW068 24/21 Q1018
  • 190330Z AUTO 22003KT 170V260 9999 -RA NSC 24/21 Q1018
  • 190300Z AUTO 20003KT 160V250 CAVOK 25/20 Q1018
  • 190230Z AUTO 29007KT 250V330 CAVOK 24/19 Q1018
  • 190200Z AUTO VRB01KT CAVOK 24/19 Q1018
  • 190130Z AUTO 26003KT CAVOK 24/18 Q1018
  • 190100Z AUTO 24003KT 200V290 CAVOK 25/18 Q1018
  • 190030Z AUTO 00000KT CAVOK 24/19 Q1018
  • 190000Z AUTO 29003KT 230V320 CAVOK 25/18 Q1018

TAF TAF LELL
Valid from the 19 at 03:00 until the 20 at 03:00 UTC


190200Z 1903/2003 VRB03KT CAVOK TX37/1913Z TN23/1905Z
BECMG 1912/1914 19010KT
BECMG 1918/1920 VRB04KT



MET'MAP, your aeronautical weather chart ! - Copyright ORBIFLY December 2007 - Disclaimer

ORBIFLY MET'MAP TEAM :

Programming & Development : Alexandra Zaïnal
Original concept : Baudouin d'Aumeries
Technical & hardware support : Manuel Goepfert
Assistance : Marc-Olivier Méhu




SOURCES & CREDITS :

   NOAA